Time;durP1;ratioP1;P1;durP2;ratioP2;P2;SDS_P1;SDS_P2;PMS_P1;PMS_P2;Temp;Humidity;BMP_temperature;BMP_pressure;BME280_temperature;BME280_humidity;BME280_pressure;Samples;Min_cycle;Max_cycle;Signal;HPM_P1;HPM_P2
2023/03/18 00:01:57;;;;;;;8.87;5.07;;;;;;;;;;5034478;28;20213;-91
2023/03/18 00:04:24;;;;;;;6.13;4.90;;;;;;;;;;5035885;28;20206;-91
2023/03/18 00:06:52;;;;;;;6.03;4.97;;;;;;;;;;5032952;28;20214;-91
2023/03/18 00:09:20;;;;;;;8.20;5.40;;;;;;;;;;5029096;28;20230;-91
2023/03/18 00:11:50;;;;;;;8.83;5.33;;;;;;;;;;5033564;28;20215;-91
2023/03/18 00:14:18;;;;;;;7.27;5.57;;;;;;;;;;5033959;28;20282;-91
2023/03/18 00:16:45;;;;;;;6.53;5.93;;;;;;;;;;5029290;28;20683;-91
2023/03/18 00:19:13;;;;;;;7.67;5.43;;;;;;;;;;5020147;28;20254;-91
2023/03/18 00:21:40;;;;;;;6.33;5.50;;;;;;;;;;5014330;28;20207;-91
2023/03/18 00:24:08;;;;;;;8.10;5.97;;;;;;;;;;5031168;28;20209;-90
2023/03/18 00:26:35;;;;;;;6.60;5.13;;;;;;;;;;5032138;28;20223;-91
2023/03/18 00:29:04;;;;;;;6.53;5.07;;;;;;;;;;5015608;28;20238;-91
2023/03/18 00:31:31;;;;;;;6.17;5.20;;;;;;;;;;5034335;28;20199;-91
2023/03/18 00:33:58;;;;;;;6.50;5.13;;;;;;;;;;5033985;28;20237;-90
2023/03/18 00:36:25;;;;;;;7.93;5.10;;;;;;;;;;5034439;28;20230;-90
2023/03/18 00:38:56;;;;;;;7.77;5.53;;;;;;;;;;5033748;28;20238;-91
2023/03/18 00:41:24;;;;;;;7.20;5.47;;;;;;;;;;5034704;28;20727;-91
2023/03/18 00:43:52;;;;;;;7.00;5.73;;;;;;;;;;5033766;28;20280;-91
2023/03/18 00:46:22;;;;;;;6.50;5.17;;;;;;;;;;5034244;28;20195;-91
2023/03/18 00:48:49;;;;;;;9.67;6.00;;;;;;;;;;5033931;28;20242;-91
2023/03/18 00:51:17;;;;;;;8.00;5.67;;;;;;;;;;5033912;28;20206;-92
2023/03/18 00:54:21;;;;;;;8.27;5.37;;;;;;;;;;5033717;28;20270;-91
2023/03/18 00:56:48;;;;;;;8.23;5.27;;;;;;;;;;5026958;28;20685;-91
2023/03/18 00:59:15;;;;;;;9.17;5.47;;;;;;;;;;5034534;28;20234;-91
2023/03/18 01:01:43;;;;;;;7.90;5.13;;;;;;;;;;5033769;28;20233;-91
2023/03/18 01:04:11;;;;;;;7.10;5.00;;;;;;;;;;5034401;28;20214;-91
2023/03/18 01:06:38;;;;;;;8.33;5.17;;;;;;;;;;5031707;28;20635;-91
2023/03/18 01:09:07;;;;;;;6.47;5.00;;;;;;;;;;5013953;28;20281;-91
2023/03/18 01:11:35;;;;;;;5.60;4.70;;;;;;;;;;5014248;28;20211;-91
2023/03/18 01:14:02;;;;;;;6.03;4.80;;;;;;;;;;5013765;28;20239;-91
2023/03/18 01:16:29;;;;;;;7.93;5.10;;;;;;;;;;5028020;28;20230;-91
2023/03/18 01:18:58;;;;;;;7.67;5.40;;;;;;;;;;5014481;28;20235;-91
2023/03/18 01:21:25;;;;;;;6.20;5.17;;;;;;;;;;5026109;28;20206;-91
2023/03/18 01:23:53;;;;;;;6.10;4.70;;;;;;;;;;5033503;28;20246;-91
2023/03/18 01:26:20;;;;;;;6.20;4.20;;;;;;;;;;5017036;28;20214;-91
2023/03/18 01:28:47;;;;;;;7.57;4.37;;;;;;;;;;5013372;28;20239;-91
2023/03/18 01:31:14;;;;;;;8.17;4.40;;;;;;;;;;5014184;28;20214;-91
2023/03/18 01:33:41;;;;;;;7.93;4.57;;;;;;;;;;5013421;28;20293;-91
2023/03/18 01:36:10;;;;;;;8.43;4.63;;;;;;;;;;5014248;28;20223;-91
2023/03/18 01:38:39;;;;;;;5.20;4.07;;;;;;;;;;5013441;28;20246;-91
2023/03/18 01:41:06;;;;;;;6.57;4.70;;;;;;;;;;5014207;28;20214;-91
2023/03/18 01:43:34;;;;;;;6.80;4.40;;;;;;;;;;5031301;28;20710;-91
2023/03/18 01:46:02;;;;;;;6.03;4.50;;;;;;;;;;5033452;28;20206;-91
2023/03/18 01:48:30;;;;;;;5.00;4.47;;;;;;;;;;5032923;28;20238;-91
2023/03/18 01:50:59;;;;;;;6.77;5.17;;;;;;;;;;5033886;28;20242;-92
2023/03/18 01:53:28;;;;;;;8.00;5.27;;;;;;;;;;5027587;28;20234;-91
2023/03/18 01:55:56;;;;;;;6.87;5.20;;;;;;;;;;5030564;28;20230;-91
2023/03/18 01:58:26;;;;;;;6.17;4.83;;;;;;;;;;5031894;28;20235;-91
2023/03/18 02:00:56;;;;;;;8.67;5.30;;;;;;;;;;5032738;28;20737;-91
2023/03/18 02:03:23;;;;;;;8.20;4.63;;;;;;;;;;5012816;28;20323;-90
2023/03/18 02:05:50;;;;;;;7.43;4.77;;;;;;;;;;5031421;28;20229;-90
2023/03/18 02:08:17;;;;;;;6.70;5.13;;;;;;;;;;5032903;28;20230;-90
2023/03/18 02:10:46;;;;;;;8.30;5.00;;;;;;;;;;5033542;28;20213;-90
2023/03/18 02:13:14;;;;;;;6.40;4.70;;;;;;;;;;5032656;28;20234;-90
2023/03/18 02:15:45;;;;;;;6.50;4.57;;;;;;;;;;5032192;28;20294;-90
2023/03/18 02:18:14;;;;;;;6.73;4.83;;;;;;;;;;5024417;28;20238;-90
2023/03/18 02:20:45;;;;;;;6.83;4.43;;;;;;;;;;5028751;28;20203;-90
2023/03/18 02:23:15;;;;;;;7.43;5.00;;;;;;;;;;5016239;28;20722;-91
2023/03/18 02:25:48;;;;;;;8.77;5.00;;;;;;;;;;5016228;28;20624;-91
2023/03/18 02:28:20;;;;;;;7.43;4.63;;;;;;;;;;5029203;28;20292;-90
2023/03/18 02:30:48;;;;;;;5.93;4.67;;;;;;;;;;5027823;28;20199;-92
2023/03/18 02:33:16;;;;;;;7.53;4.90;;;;;;;;;;5025345;28;20827;-91
2023/03/18 02:35:45;;;;;;;7.00;4.80;;;;;;;;;;5014679;28;20224;-91
2023/03/18 02:38:12;;;;;;;7.20;4.83;;;;;;;;;;5023484;28;20235;-91
2023/03/18 02:40:41;;;;;;;6.97;4.97;;;;;;;;;;5029848;28;20683;-91
2023/03/18 02:43:17;;;;;;;8.27;5.10;;;;;;;;;;5022847;28;20222;-90
2023/03/18 02:45:51;;;;;;;7.30;4.87;;;;;;;;;;5026786;28;20195;-91
2023/03/18 02:48:19;;;;;;;6.37;4.37;;;;;;;;;;5016685;28;20246;-90
2023/03/18 02:50:48;;;;;;;5.90;4.83;;;;;;;;;;5022588;28;20226;-90
2023/03/18 02:53:15;;;;;;;7.03;4.90;;;;;;;;;;5018043;28;20250;-90
2023/03/18 02:55:43;;;;;;;6.53;5.20;;;;;;;;;;5019429;28;20228;-91
2023/03/18 02:58:10;;;;;;;6.00;4.83;;;;;;;;;;5026790;28;20242;-90
2023/03/18 03:00:37;;;;;;;5.33;4.70;;;;;;;;;;5024439;28;20204;-90
2023/03/18 03:03:06;;;;;;;8.37;5.57;;;;;;;;;;5033364;28;20427;-91
2023/03/18 03:05:34;;;;;;;5.47;4.57;;;;;;;;;;5032024;28;20199;-91
2023/03/18 03:08:01;;;;;;;5.07;4.57;;;;;;;;;;5026647;28;20239;-91
2023/03/18 03:10:28;;;;;;;7.00;5.67;;;;;;;;;;5034995;28;20234;-91
2023/03/18 03:12:55;;;;;;;7.50;5.13;;;;;;;;;;5026506;28;20235;-90
2023/03/18 03:15:23;;;;;;;7.77;5.20;;;;;;;;;;5024156;28;20550;-90
2023/03/18 03:17:50;;;;;;;6.63;5.50;;;;;;;;;;5029112;28;20251;-90
2023/03/18 03:20:19;;;;;;;10.07;5.40;;;;;;;;;;5031640;28;20218;-90
2023/03/18 03:22:46;;;;;;;8.43;5.23;;;;;;;;;;5036095;28;20238;-91
2023/03/18 03:25:13;;;;;;;7.07;4.93;;;;;;;;;;5036670;28;20203;-89
2023/03/18 03:27:42;;;;;;;5.50;4.97;;;;;;;;;;5036005;28;20244;-90
2023/03/18 03:30:10;;;;;;;6.70;4.73;;;;;;;;;;5018910;28;20192;-91
2023/03/18 03:32:38;;;;;;;7.80;5.00;;;;;;;;;;5016288;28;20243;-91
2023/03/18 03:35:06;;;;;;;6.13;5.13;;;;;;;;;;5036785;28;20213;-91
2023/03/18 03:37:35;;;;;;;6.90;4.67;;;;;;;;;;5024103;28;20240;-90
2023/03/18 03:40:02;;;;;;;7.83;4.73;;;;;;;;;;5017660;28;20203;-90
2023/03/18 03:42:29;;;;;;;8.00;5.00;;;;;;;;;;5016636;28;20245;-90
2023/03/18 03:45:00;;;;;;;6.03;4.70;;;;;;;;;;5017907;28;20211;-90
2023/03/18 03:47:27;;;;;;;6.83;4.77;;;;;;;;;;5017698;28;20254;-90
2023/03/18 03:49:55;;;;;;;6.20;5.30;;;;;;;;;;5017492;28;20204;-90
2023/03/18 03:52:22;;;;;;;6.77;4.60;;;;;;;;;;5018130;28;20239;-89
2023/03/18 03:54:50;;;;;;;6.23;4.53;;;;;;;;;;5016653;28;20208;-90
2023/03/18 03:57:18;;;;;;;5.43;4.87;;;;;;;;;;5015339;28;20252;-90
2023/03/18 03:59:45;;;;;;;9.53;5.10;;;;;;;;;;5028320;28;20203;-90
2023/03/18 04:02:12;;;;;;;5.37;4.87;;;;;;;;;;5024712;28;20247;-89
2023/03/18 04:04:39;;;;;;;6.20;4.77;;;;;;;;;;5032860;28;20214;-89
2023/03/18 04:07:06;;;;;;;6.07;5.17;;;;;;;;;;5018950;28;20238;-89
2023/03/18 04:09:35;;;;;;;5.70;5.10;;;;;;;;;;5021872;28;20210;-89
2023/03/18 04:12:04;;;;;;;7.67;5.47;;;;;;;;;;5023885;28;20235;-90
2023/03/18 04:14:31;;;;;;;10.67;5.10;;;;;;;;;;5015163;28;20711;-90
2023/03/18 04:16:59;;;;;;;6.07;5.23;;;;;;;;;;5014761;28;20243;-89
2023/03/18 04:19:27;;;;;;;8.70;5.50;;;;;;;;;;5018707;28;20225;-89
2023/03/18 04:21:55;;;;;;;5.47;4.97;;;;;;;;;;5028528;28;20206;-89
2023/03/18 04:24:23;;;;;;;6.30;5.10;;;;;;;;;;5020596;28;20202;-89
2023/03/18 04:26:50;;;;;;;6.97;5.33;;;;;;;;;;5033517;28;20202;-89
2023/03/18 04:29:18;;;;;;;10.10;5.43;;;;;;;;;;5022890;28;20235;-89
2023/03/18 04:31:46;;;;;;;6.20;5.07;;;;;;;;;;5014227;28;20211;-89
2023/03/18 04:34:13;;;;;;;6.63;4.97;;;;;;;;;;5031719;28;20208;-90
2023/03/18 04:36:40;;;;;;;5.40;4.90;;;;;;;;;;5015025;28;20692;-90
2023/03/18 04:39:08;;;;;;;6.87;5.90;;;;;;;;;;5034927;28;20234;-90
2023/03/18 04:41:36;;;;;;;4.90;4.23;;;;;;;;;;5034458;28;20231;-90
2023/03/18 04:44:03;;;;;;;7.63;5.33;;;;;;;;;;5029916;28;20218;-90
2023/03/18 04:46:32;;;;;;;5.77;5.13;;;;;;;;;;5022402;28;20198;-89
2023/03/18 04:48:59;;;;;;;7.43;5.33;;;;;;;;;;5033297;28;20244;-90
2023/03/18 04:51:26;;;;;;;5.50;4.97;;;;;;;;;;5033268;28;20221;-90
2023/03/18 04:53:53;;;;;;;6.87;4.87;;;;;;;;;;5024113;28;20312;-90
2023/03/18 04:56:20;;;;;;;7.13;4.90;;;;;;;;;;5034239;28;20218;-90
2023/03/18 04:58:47;;;;;;;8.23;5.17;;;;;;;;;;5066292;23;20226;-89
2023/03/18 05:01:14;;;;;;;6.40;5.00;;;;;;;;;;5052559;28;20206;-89
2023/03/18 05:03:43;;;;;;;6.77;5.33;;;;;;;;;;5051639;28;20234;-88
2023/03/18 05:06:16;;;;;;;12.93;5.30;;;;;;;;;;5052336;28;20680;-88
2023/03/18 05:08:43;;;;;;;6.97;5.10;;;;;;;;;;5040340;28;20243;-89
2023/03/18 05:11:10;;;;;;;8.10;5.17;;;;;;;;;;5032214;28;20202;-88
2023/03/18 05:13:39;;;;;;;8.63;5.70;;;;;;;;;;5031873;28;20241;-88
2023/03/18 05:16:07;;;;;;;7.97;5.07;;;;;;;;;;5049350;28;20225;-88
2023/03/18 05:18:34;;;;;;;8.00;5.30;;;;;;;;;;5051418;28;20244;-88
2023/03/18 05:21:03;;;;;;;6.93;4.83;;;;;;;;;;5052335;28;20218;-89
2023/03/18 05:23:31;;;;;;;7.37;4.93;;;;;;;;;;5051857;28;20255;-88
2023/03/18 05:25:58;;;;;;;8.03;5.47;;;;;;;;;;5052438;28;20848;-89
2023/03/18 05:28:26;;;;;;;8.57;6.00;;;;;;;;;;5051967;28;20238;-88
2023/03/18 05:30:53;;;;;;;7.93;5.27;;;;;;;;;;5052208;28;20584;-88
2023/03/18 05:33:20;;;;;;;6.90;5.97;;;;;;;;;;5051330;28;20613;-88
2023/03/18 05:35:47;;;;;;;8.00;5.73;;;;;;;;;;5052068;28;20217;-88
2023/03/18 05:38:16;;;;;;;10.33;5.83;;;;;;;;;;5051684;28;20237;-88
2023/03/18 05:40:43;;;;;;;9.43;5.57;;;;;;;;;;5052167;28;20214;-88
2023/03/18 05:43:10;;;;;;;6.43;5.23;;;;;;;;;;5051395;28;20650;-88
2023/03/18 05:45:37;;;;;;;6.97;5.33;;;;;;;;;;5051975;28;20666;-88
2023/03/18 05:48:05;;;;;;;7.37;5.57;;;;;;;;;;5051414;28;20713;-88
2023/03/18 05:50:33;;;;;;;8.83;6.10;;;;;;;;;;5055466;28;20205;-88
2023/03/18 05:53:00;;;;;;;10.27;6.30;;;;;;;;;;5051212;28;20230;-87
2023/03/18 05:55:29;;;;;;;10.83;6.20;;;;;;;;;;5052129;28;20229;-88
2023/03/18 05:57:56;;;;;;;6.53;5.50;;;;;;;;;;5051097;28;20245;-88
2023/03/18 06:00:24;;;;;;;7.67;5.40;;;;;;;;;;5051783;28;20248;-88
2023/03/18 06:02:52;;;;;;;10.07;5.50;;;;;;;;;;5051234;28;20238;-88
2023/03/18 06:05:20;;;;;;;7.80;5.50;;;;;;;;;;5051772;28;20584;-88
2023/03/18 06:07:47;;;;;;;8.30;5.80;;;;;;;;;;5051255;28;20309;-88
2023/03/18 06:10:15;;;;;;;7.03;5.30;;;;;;;;;;5051205;28;20650;-88
2023/03/18 06:12:43;;;;;;;6.00;5.40;;;;;;;;;;5051067;28;20325;-88
2023/03/18 06:15:12;;;;;;;6.00;5.20;;;;;;;;;;5053636;28;20206;-87
2023/03/18 06:17:40;;;;;;;8.67;5.33;;;;;;;;;;5054719;28;20324;-88
2023/03/18 06:20:08;;;;;;;5.67;4.90;;;;;;;;;;5055229;28;20734;-88
2023/03/18 06:22:35;;;;;;;7.70;5.53;;;;;;;;;;5056785;28;20234;-87
2023/03/18 06:25:03;;;;;;;5.33;4.83;;;;;;;;;;5056698;28;20210;-88
2023/03/18 06:27:30;;;;;;;7.60;5.17;;;;;;;;;;5055893;28;20238;-87
2023/03/18 06:30:01;;;;;;;5.77;5.17;;;;;;;;;;5055813;28;20205;-87
2023/03/18 06:32:29;;;;;;;6.13;5.13;;;;;;;;;;5056905;28;20320;-87
2023/03/18 06:34:56;;;;;;;7.57;5.23;;;;;;;;;;5056617;28;20210;-88
2023/03/18 06:37:23;;;;;;;7.10;5.43;;;;;;;;;;5056379;28;20241;-87
2023/03/18 06:39:50;;;;;;;8.03;5.70;;;;;;;;;;5056328;28;20229;-88
2023/03/18 06:42:17;;;;;;;7.93;5.67;;;;;;;;;;5055437;28;20260;-87
2023/03/18 06:44:49;;;;;;;10.50;5.30;;;;;;;;;;5054610;28;20201;-88
2023/03/18 06:47:18;;;;;;;6.37;5.20;;;;;;;;;;5053994;28;20222;-87
2023/03/18 06:49:45;;;;;;;6.13;5.40;;;;;;;;;;5055036;28;20701;-88
2023/03/18 06:52:13;;;;;;;6.53;5.87;;;;;;;;;;5055558;28;20233;-87
2023/03/18 06:54:40;;;;;;;7.27;5.93;;;;;;;;;;5056119;28;20202;-87
2023/03/18 06:57:07;;;;;;;7.97;5.83;;;;;;;;;;5055315;28;20233;-87
2023/03/18 06:59:35;;;;;;;7.90;5.60;;;;;;;;;;5055219;28;20234;-88
2023/03/18 07:02:02;;;;;;;9.57;5.90;;;;;;;;;;5054154;28;20288;-89
2023/03/18 07:04:32;;;;;;;6.53;5.43;;;;;;;;;;5054831;28;20200;-88
2023/03/18 07:07:00;;;;;;;9.30;6.00;;;;;;;;;;5054627;28;20256;-88
2023/03/18 07:09:27;;;;;;;6.33;5.30;;;;;;;;;;5054776;28;20226;-88
2023/03/18 07:11:54;;;;;;;8.10;5.60;;;;;;;;;;5053638;28;20646;-88
2023/03/18 07:14:21;;;;;;;9.00;5.80;;;;;;;;;;5054630;28;20205;-89
2023/03/18 07:16:48;;;;;;;8.03;5.80;;;;;;;;;;5054691;28;20249;-88
2023/03/18 07:19:16;;;;;;;8.23;5.57;;;;;;;;;;5054140;28;20226;-88
2023/03/18 07:21:45;;;;;;;8.50;5.30;;;;;;;;;;5053371;28;20206;-88
2023/03/18 07:24:13;;;;;;;7.87;5.50;;;;;;;;;;5053708;28;20210;-88
2023/03/18 07:26:40;;;;;;;8.63;5.37;;;;;;;;;;5053638;28;20212;-88
2023/03/18 07:29:07;;;;;;;6.67;5.13;;;;;;;;;;5054236;28;20236;-88
2023/03/18 07:31:35;;;;;;;7.93;5.30;;;;;;;;;;5055956;28;20205;-89
2023/03/18 07:34:03;;;;;;;5.13;4.60;;;;;;;;;;5058443;28;20221;-89
2023/03/18 07:36:30;;;;;;;11.60;5.83;;;;;;;;;;5057186;28;20210;-88
2023/03/18 07:38:59;;;;;;;6.53;5.80;;;;;;;;;;5054877;28;20602;-88
2023/03/18 07:41:26;;;;;;;7.70;5.90;;;;;;;;;;5054417;28;20241;-89
2023/03/18 07:43:53;;;;;;;7.50;6.07;;;;;;;;;;5054528;28;20242;-90
2023/03/18 07:46:21;;;;;;;10.00;6.23;;;;;;;;;;5054088;28;20657;-89
2023/03/18 07:48:48;;;;;;;11.60;6.03;;;;;;;;;;5054405;28;20320;-91
2023/03/18 07:51:15;;;;;;;6.37;4.40;;;;;;;;;;5054700;28;20575;-90
2023/03/18 07:53:43;;;;;;;4.53;3.50;;;;;;;;;;5053451;28;20225;-90
2023/03/18 07:56:12;;;;;;;5.50;4.27;;;;;;;;;;5054661;28;20269;-89
2023/03/18 07:58:39;;;;;;;5.97;4.13;;;;;;;;;;5052878;28;20240;-89
2023/03/18 08:01:08;;;;;;;5.73;3.57;;;;;;;;;;5052952;28;20213;-88
2023/03/18 08:03:35;;;;;;;6.30;3.60;;;;;;;;;;5053171;28;20312;-88
2023/03/18 08:06:02;;;;;;;4.60;3.60;;;;;;;;;;5039265;28;20657;-89
2023/03/18 08:08:30;;;;;;;4.43;3.67;;;;;;;;;;5033146;28;20615;-87
2023/03/18 08:10:58;;;;;;;4.90;3.30;;;;;;;;;;5033691;28;20625;-86
2023/03/18 08:13:27;;;;;;;4.50;2.80;;;;;;;;;;5045886;28;20233;-88
2023/03/18 08:15:55;;;;;;;6.23;3.03;;;;;;;;;;5053282;28;20210;-86
2023/03/18 08:18:22;;;;;;;4.80;2.87;;;;;;;;;;5052644;28;20601;-87
2023/03/18 08:20:49;;;;;;;3.30;2.60;;;;;;;;;;5053347;28;20251;-86
2023/03/18 08:23:17;;;;;;;11.03;6.43;;;;;;;;;;5053511;28;20668;-86
2023/03/18 08:25:44;;;;;;;8.13;3.63;;;;;;;;;;5054410;28;20236;-86
2023/03/18 08:28:11;;;;;;;4.83;2.40;;;;;;;;;;5052406;28;20241;-84
2023/03/18 08:30:40;;;;;;;2.23;2.00;;;;;;;;;;5053000;28;20214;-84
2023/03/18 08:33:08;;;;;;;5.23;3.30;;;;;;;;;;5052240;28;20222;-84
2023/03/18 08:35:35;;;;;;;2.20;2.10;;;;;;;;;;5052815;28;20576;-87
2023/03/18 08:38:03;;;;;;;2.70;1.90;;;;;;;;;;5051374;28;20237;-86
2023/03/18 08:40:30;;;;;;;2.90;2.00;;;;;;;;;;5052889;28;20300;-86
2023/03/18 08:42:57;;;;;;;2.73;2.50;;;;;;;;;;5052949;28;20242;-86
2023/03/18 08:45:26;;;;;;;4.03;2.00;;;;;;;;;;5053488;28;20862;-88
2023/03/18 08:47:54;;;;;;;2.47;2.00;;;;;;;;;;5051980;28;20313;-86
2023/03/18 08:50:27;;;;;;;3.93;2.50;;;;;;;;;;5049043;28;20227;-86
2023/03/18 08:52:55;;;;;;;6.20;2.53;;;;;;;;;;5038163;28;20344;-85
2023/03/18 08:55:22;;;;;;;4.13;2.00;;;;;;;;;;5051829;28;20203;-87
2023/03/18 08:57:50;;;;;;;2.47;1.73;;;;;;;;;;5051647;28;20245;-86
2023/03/18 09:00:18;;;;;;;3.77;2.13;;;;;;;;;;5051824;28;20205;-86
2023/03/18 09:02:46;;;;;;;2.10;1.87;;;;;;;;;;5051584;28;20238;-86
2023/03/18 09:05:14;;;;;;;3.00;2.10;;;;;;;;;;5051984;28;20210;-85
2023/03/18 09:07:42;;;;;;;5.37;2.00;;;;;;;;;;5060989;28;20253;-86
2023/03/18 09:10:11;;;;;;;4.33;1.70;;;;;;;;;;5064867;28;20285;-85
2023/03/18 09:12:39;;;;;;;3.17;2.23;;;;;;;;;;5037483;28;20312;-85
2023/03/18 09:15:08;;;;;;;1.97;1.70;;;;;;;;;;5039565;28;20266;-85
2023/03/18 09:17:37;;;;;;;2.77;2.10;;;;;;;;;;5031120;28;20703;-85
2023/03/18 09:20:04;;;;;;;2.13;1.70;;;;;;;;;;5032190;28;20206;-85
2023/03/18 09:22:32;;;;;;;2.20;2.00;;;;;;;;;;5031386;28;20258;-86
2023/03/18 09:25:00;;;;;;;1.77;1.50;;;;;;;;;;5032093;28;20194;-85
2023/03/18 09:27:27;;;;;;;2.50;1.70;;;;;;;;;;5031871;28;20287;-85
2023/03/18 09:29:55;;;;;;;2.13;1.77;;;;;;;;;;5031906;28;20734;-84
2023/03/18 09:32:22;;;;;;;2.73;1.67;;;;;;;;;;5031438;28;20237;-84
2023/03/18 09:34:50;;;;;;;2.13;1.60;;;;;;;;;;5031762;28;20194;-85
2023/03/18 09:37:17;;;;;;;3.15;1.75;;;;;;;;;;5031883;28;20226;-86
2023/03/18 09:39:47;;;;;;;1.38;1.30;;;;;;;;;;5031548;28;20710;-86
2023/03/18 09:42:20;;;;;;;3.78;1.90;;;;;;;;;;5036624;28;20317;-86
2023/03/18 09:44:50;;;;;;;4.88;1.83;;;;;;;;;;5051934;28;20201;-87
2023/03/18 09:47:24;;;;;;;3.30;1.45;;;;;;;;;;5051931;28;20237;-87
2023/03/18 09:49:58;;;;;;;3.80;1.73;;;;;;;;;;5055244;28;20774;-87
2023/03/18 09:52:27;;;;;;;3.38;1.63;;;;;;;;;;5055955;28;20242;-88
2023/03/18 09:54:57;;;;;;;2.78;1.77;;;;;;;;;;5055658;28;20206;-88
2023/03/18 09:57:25;;;;;;;3.78;1.38;;;;;;;;;;5055717;28;20237;-87
2023/03/18 09:59:55;;;;;;;2.15;1.80;;;;;;;;;;5053371;28;20309;-87
2023/03/18 10:02:24;;;;;;;4.28;1.52;;;;;;;;;;5057102;28;20748;-86
2023/03/18 10:04:55;;;;;;;1.92;1.52;;;;;;;;;;5056723;28;20198;-87
2023/03/18 10:07:24;;;;;;;3.85;1.63;;;;;;;;;;5056839;28;20284;-87
2023/03/18 10:09:54;;;;;;;2.80;1.73;;;;;;;;;;5057378;28;20702;-87
2023/03/18 10:12:29;;;;;;;2.42;1.80;;;;;;;;;;5055370;28;20245;-87
2023/03/18 10:15:00;;;;;;;3.75;1.65;;;;;;;;;;5056157;28;20838;-87
2023/03/18 10:17:31;;;;;;;3.28;1.63;;;;;;;;;;5055674;28;20236;-87
2023/03/18 10:19:59;;;;;;;2.88;1.60;;;;;;;;;;5056133;28;20191;-87
2023/03/18 10:22:39;;;;;;;1.70;1.40;;;;;;;;;;5055384;28;20240;-87
2023/03/18 10:25:13;;;;;;;3.25;1.60;;;;;;;;;;5055989;28;20196;-87
2023/03/18 10:27:48;;;;;;;1.65;1.55;;;;;;;;;;5055398;28;20260;-87
2023/03/18 10:30:25;;;;;;;1.70;1.40;;;;;;;;;;5055782;28;20196;-87
2023/03/18 10:32:55;;;;;;;1.50;1.20;;;;;;;;;;5055453;28;20315;-87
2023/03/18 10:35:27;;;;;;;2.65;1.50;;;;;;;;;;5055848;28;20289;-87
2023/03/18 10:37:57;;;;;;;1.63;1.50;;;;;;;;;;5055240;28;20240;-88
2023/03/18 10:40:25;;;;;;;2.30;1.60;;;;;;;;;;5055746;28;20217;-88
2023/03/18 10:42:55;;;;;;;3.55;1.30;;;;;;;;;;5055215;28;20376;-88
2023/03/18 10:45:24;;;;;;;2.25;1.80;;;;;;;;;;5055470;28;20272;-87
2023/03/18 10:47:57;;;;;;;1.40;1.15;;;;;;;;;;5055210;28;20232;-88
2023/03/18 10:50:30;;;;;;;2.25;1.50;;;;;;;;;;5055434;28;20206;-87
2023/03/18 10:53:01;;;;;;;3.33;1.40;;;;;;;;;;5054845;28;20315;-88
2023/03/18 10:55:31;;;;;;;2.88;1.73;;;;;;;;;;5055217;28;20549;-87
2023/03/18 10:58:00;;;;;;;2.85;2.00;;;;;;;;;;5054796;28;20237;-87
2023/03/18 11:00:29;;;;;;;3.55;1.75;;;;;;;;;;5055194;28;20190;-86
2023/03/18 11:02:56;;;;;;;1.95;1.52;;;;;;;;;;5054533;28;20767;-86
2023/03/18 11:05:25;;;;;;;3.28;1.83;;;;;;;;;;5054945;28;20689;-86
2023/03/18 11:07:56;;;;;;;3.90;1.70;;;;;;;;;;5053940;28;20771;-86
2023/03/18 11:10:26;;;;;;;4.68;1.92;;;;;;;;;;5055107;28;20208;-85
2023/03/18 11:12:55;;;;;;;1.70;1.30;;;;;;;;;;5054277;28;20316;-86
2023/03/18 11:15:25;;;;;;;3.35;1.50;;;;;;;;;;5054529;28;20213;-85
2023/03/18 11:17:52;;;;;;;1.70;1.15;;;;;;;;;;5054182;28;20229;-85
2023/03/18 11:20:23;;;;;;;1.45;1.27;;;;;;;;;;5055197;28;20210;-85
2023/03/18 11:22:51;;;;;;;2.83;1.20;;;;;;;;;;5054251;28;20234;-86
2023/03/18 11:25:19;;;;;;;2.42;1.27;;;;;;;;;;5055072;28;20198;-85
2023/03/18 11:27:47;;;;;;;2.17;1.50;;;;;;;;;;5054060;28;20245;-85
2023/03/18 11:30:16;;;;;;;1.75;1.50;;;;;;;;;;5054961;28;20206;-86
2023/03/18 11:32:52;;;;;;;2.00;1.52;;;;;;;;;;5053827;28;20234;-85
2023/03/18 11:35:21;;;;;;;2.72;1.35;;;;;;;;;;5055044;28;20233;-86
2023/03/18 11:37:48;;;;;;;1.50;1.40;;;;;;;;;;5033398;28;20314;-86
2023/03/18 11:40:26;;;;;;;3.55;1.50;;;;;;;;;;5034507;28;20647;-86
2023/03/18 11:42:57;;;;;;;3.13;1.45;;;;;;;;;;5033981;28;20250;-86
2023/03/18 11:45:30;;;;;;;3.75;1.50;;;;;;;;;;5034516;28;20616;-86
2023/03/18 11:47:59;;;;;;;1.80;1.42;;;;;;;;;;5033459;28;20620;-86
2023/03/18 11:50:29;;;;;;;1.65;1.50;;;;;;;;;;5034255;28;20210;-86
2023/03/18 11:52:59;;;;;;;1.52;1.30;;;;;;;;;;5033569;28;20241;-86
2023/03/18 11:55:32;;;;;;;4.18;1.50;;;;;;;;;;5034312;28;20210;-87
2023/03/18 11:58:23;;;;;;;2.55;1.60;;;;;;;;;;5033226;28;20321;-87
2023/03/18 12:00:54;;;;;;;2.05;1.52;;;;;;;;;;5034416;28;20207;-86
2023/03/18 12:03:37;;;;;;;2.38;1.45;;;;;;;;;;5033724;28;20235;-87
2023/03/18 12:06:11;;;;;;;2.38;1.67;;;;;;;;;;5053690;28;20202;-87
2023/03/18 12:08:46;;;;;;;1.92;1.40;;;;;;;;;;5053278;28;20233;-87
2023/03/18 12:11:18;;;;;;;2.45;1.50;;;;;;;;;;5053885;28;20194;-87
2023/03/18 12:13:51;;;;;;;2.55;1.50;;;;;;;;;;5052870;28;20316;-87
2023/03/18 12:16:22;;;;;;;3.03;1.90;;;;;;;;;;5053854;28;20186;-87
2023/03/18 12:19:03;;;;;;;3.05;1.40;;;;;;;;;;5053275;28;20698;-87
2023/03/18 12:21:45;;;;;;;2.30;1.40;;;;;;;;;;5053890;28;20252;-86
2023/03/18 12:24:27;;;;;;;2.40;1.55;;;;;;;;;;5053400;28;20229;-87
2023/03/18 12:27:00;;;;;;;3.40;1.33;;;;;;;;;;5053221;28;20265;-87
2023/03/18 12:29:41;;;;;;;3.50;1.52;;;;;;;;;;5053398;28;20233;-85
2023/03/18 12:32:14;;;;;;;3.05;1.52;;;;;;;;;;5052640;28;20234;-87
2023/03/18 12:34:59;;;;;;;2.95;1.52;;;;;;;;;;5053592;28;20210;-88
2023/03/18 12:37:33;;;;;;;2.28;1.40;;;;;;;;;;5052836;28;20237;-86
2023/03/18 12:40:14;;;;;;;2.88;1.75;;;;;;;;;;5053400;28;20300;-87
2023/03/18 12:42:50;;;;;;;2.70;1.45;;;;;;;;;;5052633;28;20728;-87
2023/03/18 12:45:19;;;;;;;2.90;1.52;;;;;;;;;;5053068;28;20194;-87
2023/03/18 12:47:48;;;;;;;2.90;1.70;;;;;;;;;;5052532;28;20234;-88
2023/03/18 12:50:16;;;;;;;5.80;2.15;;;;;;;;;;5052907;28;20206;-86
2023/03/18 12:52:48;;;;;;;2.10;1.30;;;;;;;;;;5052512;28;20234;-87
2023/03/18 12:55:17;;;;;;;4.78;1.70;;;;;;;;;;5053134;28;20194;-87
2023/03/18 12:57:46;;;;;;;3.45;1.50;;;;;;;;;;5051969;28;20609;-87
2023/03/18 13:00:22;;;;;;;3.55;1.90;;;;;;;;;;5052638;28;20283;-87
2023/03/18 13:02:53;;;;;;;1.75;1.60;;;;;;;;;;5051917;28;20763;-86
2023/03/18 13:05:25;;;;;;;3.45;1.40;;;;;;;;;;5052770;28;20183;-87
2023/03/18 13:07:59;;;;;;;6.75;1.70;;;;;;;;;;5051935;28;20763;-88
2023/03/18 13:10:29;;;;;;;3.17;1.50;;;;;;;;;;5052622;28;20653;-88
2023/03/18 13:12:58;;;;;;;3.00;1.77;;;;;;;;;;5052045;28;20252;-87
2023/03/18 13:15:29;;;;;;;4.15;1.70;;;;;;;;;;5052661;28;20233;-87
2023/03/18 13:17:58;;;;;;;2.63;1.67;;;;;;;;;;5052013;28;20329;-87
2023/03/18 13:20:27;;;;;;;1.77;1.45;;;;;;;;;;5051831;28;20233;-87
2023/03/18 13:23:05;;;;;;;2.45;1.35;;;;;;;;;;5051374;28;20230;-87
2023/03/18 13:25:39;;;;;;;3.97;1.67;;;;;;;;;;5052591;28;20190;-87
2023/03/18 13:28:21;;;;;;;2.42;1.58;;;;;;;;;;5051715;28;20237;-87
2023/03/18 13:30:58;;;;;;;4.55;1.67;;;;;;;;;;5050518;28;20666;-87
2023/03/18 13:33:32;;;;;;;3.50;1.50;;;;;;;;;;5051767;28;20693;-87
2023/03/18 13:36:14;;;;;;;2.90;1.55;;;;;;;;;;5052069;28;20205;-87
2023/03/18 13:38:55;;;;;;;1.70;1.20;;;;;;;;;;5051844;28;20771;-87
2023/03/18 13:41:31;;;;;;;4.03;1.50;;;;;;;;;;5052125;28;20201;-87
2023/03/18 13:43:59;;;;;;;3.25;1.70;;;;;;;;;;5051694;28;20712;-87
2023/03/18 13:46:28;;;;;;;3.72;1.45;;;;;;;;;;5052509;28;20210;-87
2023/03/18 13:48:57;;;;;;;3.70;1.58;;;;;;;;;;5051661;28;20237;-86
2023/03/18 13:51:39;;;;;;;4.40;1.98;;;;;;;;;;5051828;28;20236;-86
2023/03/18 13:54:13;;;;;;;2.70;1.45;;;;;;;;;;5031671;28;20222;-86
2023/03/18 13:56:47;;;;;;;2.28;1.42;;;;;;;;;;5032273;28;20294;-86
2023/03/18 13:59:29;;;;;;;3.17;1.70;;;;;;;;;;5051747;28;20230;-87
2023/03/18 14:01:58;;;;;;;2.03;1.60;;;;;;;;;;5051018;28;20206;-86
2023/03/18 14:04:31;;;;;;;2.53;1.35;;;;;;;;;;5051716;28;20666;-86
2023/03/18 14:07:12;;;;;;;3.40;1.90;;;;;;;;;;5051310;28;20237;-85
2023/03/18 14:09:54;;;;;;;2.13;1.23;;;;;;;;;;5051799;28;20316;-86
2023/03/18 14:12:38;;;;;;;1.75;1.40;;;;;;;;;;5049566;28;20713;-86
2023/03/18 14:15:26;;;;;;;2.45;1.50;;;;;;;;;;5052210;28;20234;-87
2023/03/18 14:17:55;;;;;;;2.80;1.42;;;;;;;;;;5051429;28;20242;-87
2023/03/18 14:20:27;;;;;;;3.05;1.73;;;;;;;;;;5051895;28;20631;-86
2023/03/18 14:22:55;;;;;;;1.67;1.33;;;;;;;;;;5050921;28;20697;-86
2023/03/18 14:25:24;;;;;;;3.00;1.55;;;;;;;;;;5051563;28;20213;-87
2023/03/18 14:27:54;;;;;;;3.00;1.88;;;;;;;;;;5051287;28;20238;-86
2023/03/18 14:30:28;;;;;;;3.72;2.78;;;;;;;;;;5051867;28;20221;-87
2023/03/18 14:32:57;;;;;;;5.10;2.80;;;;;;;;;;5051464;28;20245;-87
2023/03/18 14:35:27;;;;;;;5.07;2.60;;;;;;;;;;5052732;28;20217;-86
2023/03/18 14:37:56;;;;;;;4.95;1.73;;;;;;;;;;5054896;28;20237;-86
2023/03/18 14:40:23;;;;;;;3.42;1.42;;;;;;;;;;5055050;28;20234;-87
2023/03/18 14:42:57;;;;;;;3.65;1.85;;;;;;;;;;5054498;28;20245;-86
2023/03/18 14:45:26;;;;;;;1.92;1.63;;;;;;;;;;5055272;28;20210;-86
2023/03/18 14:47:54;;;;;;;1.58;1.38;;;;;;;;;;5054802;28;20244;-87
2023/03/18 14:50:28;;;;;;;3.28;1.48;;;;;;;;;;5056175;28;20209;-87
2023/03/18 14:52:59;;;;;;;1.40;1.20;;;;;;;;;;5058933;28;20230;-87
2023/03/18 14:55:28;;;;;;;3.42;1.25;;;;;;;;;;5058252;28;20605;-87
2023/03/18 14:57:56;;;;;;;1.85;1.13;;;;;;;;;;5057677;28;20237;-87